Time;durP1;ratioP1;P1;durP2;ratioP2;P2;SDS_P1;SDS_P2;PMS_P1;PMS_P2;Temp;Humidity;BMP_temperature;BMP_pressure;BME280_temperature;BME280_humidity;BME280_pressure;Samples;Min_cycle;Max_cycle;Signal;HPM_P1;HPM_P2
2022/11/10 00:00:48;;;;;;;7.00;4.50;;;22.30;59.10;;;;;;5025378;28;20056;-69
2022/11/10 00:03:34;;;;;;;7.28;4.80;;;22.20;58.90;;;;;;5013516;28;20046;-69
2022/11/10 00:06:19;;;;;;;8.95;4.90;;;22.30;58.90;;;;;;5013298;28;20037;-69
2022/11/10 00:09:04;;;;;;;7.05;4.50;;;22.20;58.70;;;;;;5012875;28;20536;-69
2022/11/10 00:11:48;;;;;;;6.60;4.55;;;22.30;58.70;;;;;;5026220;28;20033;-69
2022/11/10 00:17:37;;;;;;;7.28;4.70;;;22.40;58.80;;;;;;5013084;28;20084;-69
2022/11/10 00:20:22;;;;;;;6.68;4.05;;;22.40;58.70;;;;;;5015025;28;20026;-69
2022/11/10 00:23:06;;;;;;;6.57;4.50;;;22.40;58.70;;;;;;5032474;28;20037;-70
2022/11/10 00:25:50;;;;;;;5.88;4.53;;;22.30;58.60;;;;;;5032512;28;20041;-69
2022/11/10 00:28:35;;;;;;;8.23;5.18;;;22.40;58.70;;;;;;5032756;28;20038;-69
2022/11/10 00:31:19;;;;;;;8.55;4.95;;;22.30;58.60;;;;;;5032445;28;20037;-69
2022/11/10 00:34:04;;;;;;;6.05;4.65;;;22.30;58.60;;;;;;5032542;28;20072;-70
2022/11/10 00:36:49;;;;;;;8.55;5.53;;;22.30;58.70;;;;;;5032450;28;20033;-68
2022/11/10 00:39:33;;;;;;;6.18;4.50;;;22.30;58.60;;;;;;5032162;28;20048;-69
2022/11/10 00:42:18;;;;;;;9.13;5.00;;;22.30;58.70;;;;;;5032425;28;20026;-70
2022/11/10 00:45:03;;;;;;;8.38;4.32;;;22.30;58.70;;;;;;5031399;28;21004;-69
2022/11/10 00:47:47;;;;;;;6.88;4.55;;;22.30;58.80;;;;;;5031718;28;20017;-69
2022/11/10 00:50:32;;;;;;;8.88;5.00;;;22.20;58.60;;;;;;5032554;28;20164;-69
2022/11/10 00:53:17;;;;;;;8.15;5.20;;;22.20;58.50;;;;;;5032057;28;20037;-69
2022/11/10 00:56:01;;;;;;;8.10;4.75;;;22.20;58.60;;;;;;5032049;28;20025;-70
2022/11/10 00:58:46;;;;;;;7.60;5.00;;;22.20;58.70;;;;;;5031889;28;20083;-69
2022/11/10 01:01:30;;;;;;;7.57;4.40;;;22.00;58.50;;;;;;5031967;28;20042;-70
2022/11/10 01:04:15;;;;;;;7.88;4.22;;;22.20;58.60;;;;;;5030155;28;20052;-69
2022/11/10 01:06:59;;;;;;;13.90;5.07;;;22.20;58.50;;;;;;5030191;28;20029;-69
2022/11/10 01:09:44;;;;;;;8.02;4.40;;;22.20;58.70;;;;;;5031623;28;20049;-69
2022/11/10 01:12:30;;;;;;;7.57;4.13;;;22.20;58.60;;;;;;5031237;28;20045;-69
2022/11/10 01:15:15;;;;;;;8.32;4.85;;;22.10;58.60;;;;;;5031568;28;20041;-70
2022/11/10 01:17:59;;;;;;;7.32;4.13;;;22.20;58.50;;;;;;5031134;28;20033;-69
2022/11/10 01:20:50;;;;;;;5.25;3.90;;;22.20;58.40;;;;;;5031359;28;20048;-69
2022/11/10 01:23:35;;;;;;;7.72;4.75;;;22.20;58.20;;;;;;5031350;28;20041;-69
2022/11/10 01:26:20;;;;;;;5.95;4.10;;;22.30;58.30;;;;;;5031445;28;20083;-69
2022/11/10 01:29:04;;;;;;;7.10;4.22;;;22.20;58.20;;;;;;5031354;28;20048;-70
2022/11/10 01:31:49;;;;;;;7.18;4.03;;;22.30;58.10;;;;;;5030929;28;20037;-68
2022/11/10 01:34:33;;;;;;;6.13;4.18;;;22.30;58.10;;;;;;5031445;28;20034;-68
2022/11/10 01:37:18;;;;;;;8.73;4.63;;;22.30;58.10;;;;;;5031231;28;20108;-70
2022/11/10 01:40:04;;;;;;;9.40;4.20;;;22.30;57.90;;;;;;5031187;28;20191;-68
2022/11/10 01:42:54;;;;;;;7.63;4.53;;;22.40;57.90;;;;;;5030528;28;20116;-70
2022/11/10 01:45:51;;;;;;;5.72;4.57;;;22.30;57.90;;;;;;5031152;28;20108;-70
2022/11/10 01:48:44;;;;;;;9.80;4.40;;;22.20;57.90;;;;;;5030945;28;20041;-70
2022/11/10 01:51:30;;;;;;;8.48;4.85;;;22.20;58.00;;;;;;5031236;28;20120;-69
2022/11/10 01:54:21;;;;;;;7.45;4.53;;;22.20;58.20;;;;;;5031061;28;20048;-69
2022/11/10 01:57:08;;;;;;;7.85;4.10;;;22.20;58.20;;;;;;5030387;28;20040;-69
2022/11/10 01:59:53;;;;;;;7.95;4.30;;;22.00;58.30;;;;;;5030737;28;20042;-70
2022/11/10 02:02:53;;;;;;;6.95;4.32;;;22.10;58.40;;;;;;5031307;28;20038;-70
2022/11/10 02:05:38;;;;;;;7.90;4.25;;;22.10;58.50;;;;;;5030894;28;20041;-70
2022/11/10 02:08:24;;;;;;;9.50;3.88;;;22.00;58.40;;;;;;5042859;28;20048;-69
2022/11/10 02:11:08;;;;;;;7.30;4.57;;;22.00;58.50;;;;;;5031183;28;20084;-68
2022/11/10 02:13:53;;;;;;;9.60;4.32;;;21.90;58.40;;;;;;5030930;28;20339;-70
2022/11/10 02:16:39;;;;;;;8.13;4.45;;;22.00;58.50;;;;;;5031059;28;20095;-69
2022/11/10 02:19:25;;;;;;;6.15;4.40;;;22.00;58.50;;;;;;5033928;28;20416;-68
2022/11/10 02:22:10;;;;;;;6.13;4.43;;;22.00;58.40;;;;;;5034968;28;20091;-70
2022/11/10 02:24:54;;;;;;;7.15;4.53;;;21.90;58.40;;;;;;5034538;28;20030;-69
2022/11/10 02:27:39;;;;;;;5.43;3.72;;;22.00;58.30;;;;;;5034972;28;20033;-70
2022/11/10 02:30:24;;;;;;;5.53;4.18;;;21.90;58.40;;;;;;5033646;28;20029;-69
2022/11/10 02:33:08;;;;;;;6.78;4.38;;;21.90;58.50;;;;;;5047080;28;20069;-69
2022/11/10 02:35:53;;;;;;;5.60;3.83;;;21.90;58.40;;;;;;5032871;28;20114;-68
2022/11/10 02:38:39;;;;;;;5.38;4.25;;;22.00;58.40;;;;;;5034552;28;20036;-70
2022/11/10 02:41:23;;;;;;;5.53;4.07;;;22.00;58.40;;;;;;5033864;28;20038;-70
2022/11/10 02:44:08;;;;;;;6.10;3.72;;;22.00;58.40;;;;;;5034564;28;20087;-69
2022/11/10 02:46:52;;;;;;;5.95;3.78;;;22.00;58.20;;;;;;5034567;28;20356;-69
2022/11/10 02:49:37;;;;;;;7.15;4.45;;;22.00;58.10;;;;;;5034395;28;20042;-70
2022/11/10 02:52:21;;;;;;;5.55;4.15;;;22.00;58.20;;;;;;5034179;28;20466;-69
2022/11/10 02:55:06;;;;;;;7.10;4.18;;;22.00;58.20;;;;;;5034014;28;20036;-69
2022/11/10 02:57:51;;;;;;;5.78;4.10;;;21.90;58.20;;;;;;5034400;28;20041;-69
2022/11/10 03:00:35;;;;;;;5.07;4.10;;;21.90;58.20;;;;;;5034228;28;20029;-69
2022/11/10 03:03:20;;;;;;;7.82;4.43;;;21.90;58.40;;;;;;5034085;28;20091;-70
2022/11/10 03:06:04;;;;;;;8.80;4.30;;;22.00;58.50;;;;;;5034136;28;20026;-68
2022/11/10 03:08:49;;;;;;;5.15;4.05;;;21.90;58.40;;;;;;5034309;28;20395;-69
2022/11/10 03:11:33;;;;;;;6.18;3.90;;;21.80;58.30;;;;;;5018311;28;20049;-69
2022/11/10 03:14:18;;;;;;;8.05;4.63;;;21.90;58.40;;;;;;5032954;28;20040;-69
2022/11/10 03:17:03;;;;;;;7.15;4.03;;;21.80;58.40;;;;;;5034181;28;20040;-69
2022/11/10 03:19:48;;;;;;;5.38;3.78;;;21.70;58.40;;;;;;5033254;28;20037;-69
2022/11/10 03:22:34;;;;;;;5.75;3.97;;;21.70;58.40;;;;;;5033879;28;20091;-69
2022/11/10 03:25:18;;;;;;;7.72;3.75;;;21.70;58.50;;;;;;5032092;28;20037;-70
2022/11/10 03:28:03;;;;;;;6.25;4.45;;;21.70;58.40;;;;;;5033493;28;20370;-69
2022/11/10 03:30:48;;;;;;;4.72;3.75;;;21.70;58.40;;;;;;5032984;28;20029;-69
2022/11/10 03:33:33;;;;;;;5.55;3.85;;;21.70;58.50;;;;;;5033408;28;20124;-69
2022/11/10 03:36:17;;;;;;;6.05;4.15;;;21.60;58.20;;;;;;5033514;28;20043;-69
2022/11/10 03:39:02;;;;;;;7.88;3.78;;;21.70;58.30;;;;;;5032296;28;20438;-69
2022/11/10 03:41:46;;;;;;;5.93;4.28;;;21.60;58.40;;;;;;5033360;28;20034;-70
2022/11/10 03:44:31;;;;;;;6.90;4.40;;;21.60;58.40;;;;;;5033690;28;20065;-69
2022/11/10 03:47:16;;;;;;;5.80;4.22;;;21.60;58.50;;;;;;5033478;28;20072;-68
2022/11/10 03:50:00;;;;;;;6.32;4.18;;;21.70;58.50;;;;;;5033008;28;20487;-69
2022/11/10 03:52:46;;;;;;;5.88;3.90;;;21.60;58.20;;;;;;5033332;28;20157;-69
2022/11/10 03:55:30;;;;;;;8.50;3.70;;;21.60;58.20;;;;;;5032965;28;20120;-68
2022/11/10 03:58:15;;;;;;;7.15;4.57;;;21.60;58.40;;;;;;5032136;28;20040;-69
2022/11/10 04:00:59;;;;;;;9.57;4.28;;;21.60;58.30;;;;;;5033092;28;20061;-69
2022/11/10 04:03:44;;;;;;;6.68;3.97;;;21.70;58.30;;;;;;5032850;28;20190;-69
2022/11/10 04:09:31;;;;;;;7.78;4.68;;;21.80;58.20;;;;;;5032978;28;20079;-69
2022/11/10 04:18:28;;;;;;;6.07;4.10;;;21.80;58.10;;;;;;5032581;28;20048;-70
2022/11/10 04:21:12;;;;;;;5.10;3.88;;;21.90;58.00;;;;;;5032636;28;20037;-69
2022/11/10 04:23:57;;;;;;;7.18;4.55;;;21.90;58.00;;;;;;5032311;28;20454;-68
2022/11/10 04:26:42;;;;;;;5.47;4.10;;;21.90;57.90;;;;;;5032551;28;20037;-69
2022/11/10 04:29:27;;;;;;;8.20;4.50;;;21.90;57.80;;;;;;5032759;28;20399;-68
2022/11/10 04:32:11;;;;;;;6.75;4.70;;;21.90;57.80;;;;;;5032324;28;20037;-69
2022/11/10 04:34:56;;;;;;;6.82;5.15;;;22.00;57.60;;;;;;5032475;28;20099;-69
2022/11/10 04:37:40;;;;;;;7.10;4.32;;;22.10;57.50;;;;;;5032089;28;20064;-68
2022/11/10 04:40:25;;;;;;;5.63;3.90;;;22.00;57.40;;;;;;5032290;28;20029;-69
2022/11/10 04:43:09;;;;;;;4.85;4.00;;;22.10;57.40;;;;;;5031291;28;20051;-69
2022/11/10 04:45:54;;;;;;;6.55;4.07;;;22.10;57.40;;;;;;5032143;28;20045;-69
2022/11/10 04:48:39;;;;;;;8.27;4.72;;;22.20;57.20;;;;;;5032163;28;20124;-69
2022/11/10 04:51:27;;;;;;;7.75;4.57;;;22.10;57.50;;;;;;5032128;28;20428;-70
2022/11/10 04:54:11;;;;;;;6.68;4.40;;;22.20;57.30;;;;;;5031858;28;20029;-70
2022/11/10 04:56:56;;;;;;;7.47;4.10;;;22.20;56.90;;;;;;5031838;28;20059;-69
2022/11/10 04:59:40;;;;;;;8.00;3.63;;;22.40;56.80;;;;;;5031752;28;20044;-69
2022/11/10 05:02:25;;;;;;;7.35;4.13;;;22.50;56.90;;;;;;5031131;28;20056;-68
2022/11/10 05:05:10;;;;;;;7.80;4.93;;;22.40;56.50;;;;;;5031131;28;20041;-69
2022/11/10 05:07:55;;;;;;;6.80;4.45;;;22.60;55.80;;;;;;5029627;28;20336;-74
2022/11/10 05:10:40;;;;;;;4.78;3.25;;;22.70;58.50;;;;;;5031903;28;20025;-73
2022/11/10 05:13:24;;;;;;;6.93;4.10;;;23.00;58.30;;;;;;5031735;28;20037;-74
2022/11/10 05:16:10;;;;;;;6.65;4.28;;;23.20;61.90;;;;;;5031977;28;20056;-73
2022/11/10 05:18:57;;;;;;;8.35;4.13;;;23.40;63.40;;;;;;5031134;28;20026;-73
2022/11/10 05:21:41;;;;;;;7.53;4.68;;;23.70;57.10;;;;;;5031808;28;20123;-70
2022/11/10 05:24:26;;;;;;;6.57;5.13;;;23.50;54.90;;;;;;5030874;28;20383;-71
2022/11/10 05:27:10;;;;;;;7.80;5.68;;;23.40;53.80;;;;;;5031493;28;20492;-71
2022/11/10 05:29:55;;;;;;;11.15;6.00;;;23.30;53.80;;;;;;5031243;28;20454;-70
2022/11/10 05:32:39;;;;;;;11.15;5.35;;;23.00;54.40;;;;;;5029360;28;20049;-70
2022/11/10 05:35:25;;;;;;;8.25;5.65;;;23.00;55.00;;;;;;5031121;28;20026;-70
2022/11/10 05:38:09;;;;;;;7.45;5.80;;;22.90;55.60;;;;;;5031667;28;20052;-71
2022/11/10 05:40:54;;;;;;;6.88;4.85;;;22.80;55.90;;;;;;5031110;28;21009;-70
2022/11/10 05:43:39;;;;;;;12.18;6.07;;;22.70;56.40;;;;;;5031461;28;20040;-71
2022/11/10 05:46:24;;;;;;;12.63;5.45;;;22.70;56.70;;;;;;5031922;28;20108;-70
2022/11/10 05:49:09;;;;;;;5.90;4.55;;;22.70;56.20;;;;;;5030984;28;20447;-71
2022/11/10 05:51:53;;;;;;;3.30;3.00;;;22.70;51.40;;;;;;5031098;28;20037;-71
2022/11/10 05:54:38;;;;;;;6.57;3.22;;;22.70;51.00;;;;;;5030665;28;20052;-71
2022/11/10 05:57:22;;;;;;;5.30;3.92;;;22.70;50.00;;;;;;5031257;28;20032;-70
2022/11/10 06:00:08;;;;;;;5.65;3.92;;;22.70;49.10;;;;;;5031135;28;20057;-70
2022/11/10 06:03:07;;;;;;;7.80;5.28;;;22.80;51.10;;;;;;5031124;28;20070;-71
2022/11/10 06:05:52;;;;;;;6.90;4.25;;;22.80;51.00;;;;;;5030925;28;20037;-71
2022/11/10 06:08:37;;;;;;;10.98;6.13;;;22.90;50.30;;;;;;5031216;28;20377;-69
2022/11/10 06:11:22;;;;;;;8.20;6.18;;;22.90;51.10;;;;;;5030984;28;20107;-70
2022/11/10 06:14:06;;;;;;;8.73;4.93;;;22.90;52.00;;;;;;5030738;28;20029;-71
2022/11/10 06:16:51;;;;;;;9.63;6.03;;;23.00;50.90;;;;;;5031027;28;20044;-70
2022/11/10 06:19:35;;;;;;;8.85;6.13;;;22.90;51.50;;;;;;5030581;28;20494;-71
2022/11/10 06:22:19;;;;;;;11.10;5.57;;;22.90;51.20;;;;;;5030852;28;20057;-71
2022/11/10 06:25:05;;;;;;;7.93;6.15;;;22.90;50.30;;;;;;5030359;28;20029;-73
2022/11/10 06:27:49;;;;;;;8.68;5.13;;;22.90;51.10;;;;;;5029219;28;20057;-71
2022/11/10 06:30:36;;;;;;;8.23;4.88;;;22.80;50.70;;;;;;5030238;28;20025;-72
2022/11/10 06:33:21;;;;;;;5.93;4.70;;;22.70;51.20;;;;;;5030841;28;20105;-71
2022/11/10 06:36:05;;;;;;;9.95;5.43;;;22.80;49.30;;;;;;5030855;28;20044;-74
2022/11/10 06:38:50;;;;;;;6.82;5.80;;;22.80;48.80;;;;;;5029794;28;20038;-71
2022/11/10 06:41:34;;;;;;;11.60;5.65;;;22.60;48.70;;;;;;5030791;28;20029;-69
2022/11/10 06:44:19;;;;;;;12.05;6.72;;;22.60;48.70;;;;;;5030768;28;20116;-72
2022/11/10 06:47:03;;;;;;;8.57;5.75;;;22.70;56.60;;;;;;5030511;28;20029;-73
2022/11/10 06:49:48;;;;;;;11.23;6.57;;;22.80;57.00;;;;;;5030669;28;20053;-74
2022/11/10 06:52:32;;;;;;;12.32;6.70;;;23.00;57.90;;;;;;5030877;28;20030;-74
2022/11/10 06:55:17;;;;;;;10.40;6.68;;;22.90;58.70;;;;;;5030719;28;20370;-72
2022/11/10 06:58:01;;;;;;;14.55;7.18;;;22.90;59.40;;;;;;5030029;28;20057;-71
2022/11/10 07:00:46;;;;;;;15.15;6.68;;;22.70;59.60;;;;;;5048092;28;20051;-70
2022/11/10 07:03:30;;;;;;;13.15;7.05;;;22.80;62.00;;;;;;5030782;28;20041;-71
2022/11/10 07:06:15;;;;;;;10.93;7.82;;;22.80;60.70;;;;;;5043822;28;20470;-72
2022/11/10 07:08:59;;;;;;;13.68;7.72;;;22.70;59.70;;;;;;5036635;28;20060;-70
2022/11/10 07:11:44;;;;;;;11.13;7.15;;;22.80;59.50;;;;;;5031900;28;20041;-70
2022/11/10 07:14:29;;;;;;;12.18;5.75;;;22.60;60.00;;;;;;5041056;28;20037;-71
2022/11/10 07:17:13;;;;;;;11.65;7.78;;;22.70;60.70;;;;;;5026906;28;20052;-70
2022/11/10 07:19:58;;;;;;;10.68;6.43;;;22.80;60.10;;;;;;5032312;28;20526;-70
2022/11/10 07:22:43;;;;;;;18.90;7.50;;;22.90;59.40;;;;;;5032588;28;20108;-71
2022/11/10 07:25:30;;;;;;;8.75;5.93;;;23.00;58.70;;;;;;5033961;28;20045;-70
2022/11/10 07:28:14;;;;;;;11.15;6.47;;;23.10;58.90;;;;;;5032957;28;20044;-71
2022/11/10 07:31:02;;;;;;;9.85;5.78;;;23.00;58.60;;;;;;5036641;28;20025;-71
2022/11/10 07:33:46;;;;;;;11.45;7.32;;;23.20;58.40;;;;;;5053581;28;20132;-71
2022/11/10 07:36:31;;;;;;;13.75;8.07;;;23.10;58.10;;;;;;5013711;28;20447;-72
2022/11/10 07:39:15;;;;;;;12.68;7.68;;;23.10;58.00;;;;;;5013740;28;20458;-69
2022/11/10 07:42:00;;;;;;;13.55;6.68;;;23.20;57.90;;;;;;5013708;28;20058;-72
2022/11/10 07:44:44;;;;;;;14.38;7.43;;;23.20;58.20;;;;;;5016954;28;20021;-71
2022/11/10 07:47:29;;;;;;;14.38;8.02;;;23.20;58.30;;;;;;5031461;28;20045;-69
2022/11/10 07:50:14;;;;;;;12.43;6.13;;;23.20;58.30;;;;;;5033214;28;20033;-71
2022/11/10 07:53:09;;;;;;;17.95;8.52;;;23.20;58.40;;;;;;5033201;28;20033;-72
2022/11/10 07:55:54;;;;;;;11.45;8.00;;;23.30;58.40;;;;;;5033022;28;20053;-72
2022/11/10 07:58:38;;;;;;;13.02;7.85;;;23.30;58.20;;;;;;5045473;28;20132;-70
2022/11/10 08:01:23;;;;;;;12.23;7.00;;;23.30;57.50;;;;;;5033085;28;20037;-70
2022/11/10 08:04:08;;;;;;;11.35;7.15;;;23.40;57.00;;;;;;5033123;28;20483;-70
2022/11/10 08:06:53;;;;;;;16.13;7.50;;;23.30;56.10;;;;;;5033195;28;20033;-69
2022/11/10 08:09:37;;;;;;;12.15;7.72;;;23.30;56.00;;;;;;5032831;28;20042;-69
2022/11/10 08:12:22;;;;;;;11.93;7.13;;;23.40;56.00;;;;;;5032908;28;20057;-70
2022/11/10 08:15:07;;;;;;;15.25;9.57;;;23.30;55.20;;;;;;5032567;28;20383;-70
2022/11/10 08:17:56;;;;;;;13.05;5.60;;;23.20;54.90;;;;;;5032484;28;20090;-69
2022/11/10 08:20:41;;;;;;;12.18;7.00;;;23.30;57.10;;;;;;5032790;28;20034;-71
2022/11/10 08:23:27;;;;;;;12.68;7.93;;;23.40;57.60;;;;;;5032817;28;20031;-71
2022/11/10 08:26:13;;;;;;;16.20;9.50;;;23.40;55.40;;;;;;5031707;28;20379;-72
2022/11/10 08:28:58;;;;;;;9.60;2.97;;;23.30;55.70;;;;;;5032348;28;20033;-73
2022/11/10 08:31:42;;;;;;;17.80;10.63;;;23.30;55.20;;;;;;5032731;28;20045;-69
2022/11/10 08:34:27;;;;;;;19.98;9.43;;;23.30;55.60;;;;;;5032336;28;20033;-74
2022/11/10 08:37:11;;;;;;;14.35;8.98;;;23.40;55.30;;;;;;5032546;28;20135;-71
2022/11/10 08:39:56;;;;;;;18.92;9.13;;;23.20;55.20;;;;;;5015681;28;20091;-73
2022/11/10 08:42:40;;;;;;;19.88;11.05;;;23.20;55.30;;;;;;5032423;28;20041;-75
2022/11/10 08:45:25;;;;;;;14.80;9.25;;;23.20;55.40;;;;;;5032327;28;20025;-70
2022/11/10 08:48:15;;;;;;;15.00;9.73;;;23.30;56.90;;;;;;5032305;28;20112;-75
2022/11/10 08:51:00;;;;;;;12.25;8.38;;;23.20;56.90;;;;;;5032261;28;20039;-70
2022/11/10 08:53:45;;;;;;;14.23;8.43;;;23.30;56.80;;;;;;5032287;28;20674;-74
2022/11/10 08:56:30;;;;;;;15.85;9.68;;;23.20;56.80;;;;;;5032172;28;20033;-75
2022/11/10 08:59:14;;;;;;;16.90;9.30;;;23.40;55.70;;;;;;5031831;28;20677;-75
2022/11/10 09:01:59;;;;;;;16.77;10.75;;;23.40;56.20;;;;;;5031937;28;20099;-74
2022/11/10 09:04:43;;;;;;;11.85;8.23;;;23.40;54.60;;;;;;5032294;28;20037;-74
2022/11/10 09:07:30;;;;;;;14.93;9.40;;;23.30;57.20;;;;;;5048650;28;20370;-69
2022/11/10 09:10:15;;;;;;;17.35;10.23;;;23.30;57.40;;;;;;5031412;28;20056;-70
2022/11/10 09:13:00;;;;;;;15.20;9.07;;;23.40;56.80;;;;;;5029890;28;20029;-72
2022/11/10 09:15:45;;;;;;;13.75;7.68;;;23.30;57.40;;;;;;5030384;28;20037;-72
2022/11/10 09:18:30;;;;;;;16.33;9.00;;;23.30;57.90;;;;;;5028961;28;20037;-70
2022/11/10 09:21:14;;;;;;;14.05;8.05;;;23.30;57.40;;;;;;5031619;28;20359;-69
2022/11/10 09:23:59;;;;;;;15.90;8.73;;;23.20;57.70;;;;;;5030907;28;20175;-67
2022/11/10 09:26:46;;;;;;;19.25;9.93;;;23.20;57.80;;;;;;5024241;28;20033;-69
2022/11/10 09:29:30;;;;;;;15.13;8.55;;;23.30;57.80;;;;;;5031274;28;20343;-68
2022/11/10 09:32:15;;;;;;;15.57;9.68;;;23.30;56.90;;;;;;5031705;28;20052;-70
2022/11/10 09:35:00;;;;;;;18.40;9.43;;;23.20;58.00;;;;;;5031496;28;20045;-68
2022/11/10 09:37:44;;;;;;;15.23;9.68;;;23.20;56.70;;;;;;5031066;28;20099;-69
2022/11/10 09:40:36;;;;;;;17.80;8.93;;;23.10;58.10;;;;;;5029288;28;20431;-68
2022/11/10 09:43:39;;;;;;;13.63;8.80;;;23.10;58.20;;;;;;5031412;28;20071;-71
2022/11/10 09:46:34;;;;;;;17.92;9.80;;;23.30;63.40;;;;;;5031528;28;20039;-70
2022/11/10 09:49:26;;;;;;;12.15;8.02;;;23.50;58.30;;;;;;5030020;28;20383;-71
2022/11/10 09:52:12;;;;;;;12.65;8.40;;;23.50;52.70;;;;;;5030038;28;20064;-71
2022/11/10 09:55:00;;;;;;;12.65;7.63;;;23.40;50.20;;;;;;5031073;28;20079;-73
2022/11/10 09:57:47;;;;;;;11.23;7.05;;;23.50;49.70;;;;;;5031256;28;20486;-71
2022/11/10 10:00:33;;;;;;;16.30;8.35;;;23.30;50.10;;;;;;5030919;28;20044;-68
2022/11/10 10:03:23;;;;;;;17.35;9.63;;;23.50;56.10;;;;;;5031294;28;20034;-71
2022/11/10 10:06:13;;;;;;;13.30;7.70;;;23.40;56.30;;;;;;5042066;28;20109;-72
2022/11/10 10:09:33;;;;;;;12.98;10.15;;;23.50;58.00;;;;;;5062037;28;20042;-70
2022/11/10 10:12:23;;;;;;;14.70;10.02;;;23.60;56.30;;;;;;5031087;28;20060;-71
2022/11/10 10:15:28;;;;;;;18.95;10.80;;;23.70;54.80;;;;;;5030648;28;20033;-70
2022/11/10 10:18:24;;;;;;;16.52;10.25;;;23.70;52.50;;;;;;5031173;28;20478;-71
2022/11/10 10:21:43;;;;;;;19.27;11.35;;;23.40;53.40;;;;;;5028931;28;20040;-71
2022/11/10 10:24:29;;;;;;;12.70;8.32;;;23.30;51.60;;;;;;5001628;28;20042;-70
2022/11/10 10:27:25;;;;;;;17.05;9.43;;;23.20;57.00;;;;;;5008491;28;20036;-70
2022/11/10 10:30:14;;;;;;;17.30;9.75;;;23.20;55.90;;;;;;5008790;28;20033;-70
2022/11/10 10:33:15;;;;;;;14.70;9.50;;;23.20;54.60;;;;;;5008660;28;20041;-68
2022/11/10 10:36:07;;;;;;;14.60;9.20;;;23.20;57.00;;;;;;5008799;28;20038;-71
2022/11/10 10:38:55;;;;;;;11.90;8.48;;;23.20;58.70;;;;;;4989019;28;20057;-73
2022/11/10 10:41:42;;;;;;;13.77;9.30;;;23.20;59.70;;;;;;4991932;28;20038;-71
2022/11/10 10:44:27;;;;;;;16.98;7.88;;;23.30;58.10;;;;;;4992751;28;20101;-69
2022/11/10 10:47:11;;;;;;;14.20;8.45;;;23.50;55.40;;;;;;4992632;28;20488;-69
2022/11/10 10:50:28;;;;;;;14.00;8.75;;;23.90;59.20;;;;;;4992191;28;20076;-69
2022/11/10 10:53:13;;;;;;;9.02;7.35;;;23.90;52.00;;;;;;4991810;28;20446;-71
2022/11/10 10:56:19;;;;;;;14.15;8.35;;;23.90;51.80;;;;;;4992115;28;20064;-72
2022/11/10 10:59:04;;;;;;;14.88;7.13;;;23.90;49.40;;;;;;4992058;28;20038;-69
2022/11/10 11:01:55;;;;;;;17.50;9.23;;;24.10;56.40;;;;;;5014235;28;20048;-69
2022/11/10 11:04:41;;;;;;;11.82;7.10;;;24.00;53.30;;;;;;5013982;28;20418;-69
2022/11/10 11:07:25;;;;;;;14.07;8.43;;;24.10;51.90;;;;;;5040076;28;20033;-70
2022/11/10 11:10:32;;;;;;;13.18;9.02;;;24.20;58.10;;;;;;5031847;28;20053;-71
2022/11/10 11:13:23;;;;;;;12.68;7.97;;;24.30;59.00;;;;;;5034027;28;20052;-71
2022/11/10 11:16:11;;;;;;;13.95;8.80;;;24.50;65.10;;;;;;5034080;28;20409;-71
2022/11/10 11:18:55;;;;;;;15.02;8.52;;;24.50;65.50;;;;;;5032183;28;20022;-70
2022/11/10 11:22:07;;;;;;;12.23;8.98;;;24.70;66.80;;;;;;5032062;28;20043;-71
2022/11/10 11:25:21;;;;;;;12.73;8.15;;;24.60;61.30;;;;;;5033567;28;20040;-70
2022/11/10 11:28:19;;;;;;;13.52;8.18;;;24.60;59.00;;;;;;4972485;28;20050;-71
2022/11/10 11:31:32;;;;;;;16.35;7.53;;;24.50;58.30;;;;;;4972057;28;20051;-69
2022/11/10 11:34:31;;;;;;;11.57;6.80;;;24.40;58.50;;;;;;4972773;28;20519;-69
2022/11/10 11:37:31;;;;;;;10.15;6.07;;;24.50;59.20;;;;;;4986868;28;20061;-70
2022/11/10 11:40:19;;;;;;;9.65;7.43;;;24.30;58.30;;;;;;4991863;28;20046;-70
2022/11/10 11:43:27;;;;;;;13.85;9.15;;;24.50;58.60;;;;;;4991664;28;20042;-71
2022/11/10 11:46:49;;;;;;;10.43;7.38;;;24.30;57.40;;;;;;4958967;28;20057;-69
2022/11/10 11:50:10;;;;;;;14.85;8.15;;;24.30;58.50;;;;;;4991698;28;20129;-69
2022/11/10 11:53:15;;;;;;;13.35;8.23;;;24.20;55.60;;;;;;4991339;28;20050;-70
2022/11/10 11:56:12;;;;;;;11.77;7.63;;;24.30;57.50;;;;;;4991816;28;20030;-70
2022/11/10 11:59:13;;;;;;;11.68;7.60;;;24.20;58.10;;;;;;4977597;28;20054;-69
2022/11/10 12:02:19;;;;;;;11.70;6.95;;;24.20;58.20;;;;;;4975196;28;20061;-69
2022/11/10 12:05:24;;;;;;;10.48;7.50;;;24.10;57.80;;;;;;5015726;28;20044;-71
2022/11/10 12:08:33;;;;;;;12.93;7.00;;;24.20;57.80;;;;;;5013228;28;20134;-70
2022/11/10 12:11:36;;;;;;;10.75;6.70;;;24.00;58.30;;;;;;5012216;28;20352;-70
2022/11/10 12:14:51;;;;;;;16.33;8.77;;;24.10;58.30;;;;;;5012441;28;20062;-70
2022/11/10 12:18:07;;;;;;;12.07;7.20;;;24.00;58.10;;;;;;5025625;28;20026;-70
2022/11/10 12:21:25;;;;;;;10.90;7.78;;;24.00;58.10;;;;;;5013258;28;20066;-66
2022/11/10 12:24:24;;;;;;;10.00;6.80;;;24.10;58.10;;;;;;5012999;28;20049;-67
2022/11/10 12:27:27;;;;;;;10.77;6.82;;;24.00;58.00;;;;;;5013198;28;20038;-66
2022/11/10 12:30:14;;;;;;;11.73;6.55;;;24.20;57.70;;;;;;5012712;28;20092;-67
2022/11/10 12:33:11;;;;;;;14.88;7.25;;;24.10;57.00;;;;;;5012741;28;20099;-66
2022/11/10 12:35:59;;;;;;;12.60;7.45;;;24.10;56.50;;;;;;5020519;28;20584;-67
2022/11/10 12:38:47;;;;;;;11.23;6.22;;;24.10;55.90;;;;;;5031801;28;20055;-69
2022/11/10 12:42:07;;;;;;;12.95;6.93;;;24.20;55.90;;;;;;5031727;28;20042;-67
2022/11/10 12:44:57;;;;;;;9.75;6.75;;;24.20;56.80;;;;;;5009549;28;20066;-66
2022/11/10 12:47:43;;;;;;;10.57;7.40;;;24.10;58.00;;;;;;5010186;28;20042;-69
2022/11/10 12:50:58;;;;;;;12.80;8.45;;;24.10;57.20;;;;;;5010039;28;20104;-67
2022/11/10 12:53:44;;;;;;;16.73;9.43;;;24.00;56.40;;;;;;5009722;28;20486;-68
2022/11/10 12:56:47;;;;;;;8.43;6.40;;;23.90;56.40;;;;;;5010141;28;20076;-68
2022/11/10 12:59:35;;;;;;;11.23;7.22;;;24.00;56.10;;;;;;5009789;28;20077;-70
2022/11/10 13:02:42;;;;;;;10.40;7.00;;;23.90;56.20;;;;;;5009106;28;20042;-69
2022/11/10 13:05:40;;;;;;;12.30;5.60;;;24.10;56.10;;;;;;5008863;28;20486;-69
2022/11/10 13:08:31;;;;;;;13.93;7.32;;;23.90;55.70;;;;;;5009691;28;20141;-71
2022/11/10 13:11:16;;;;;;;7.65;5.28;;;23.90;55.30;;;;;;5009562;28;20053;-70
2022/11/10 13:14:03;;;;;;;14.68;6.75;;;23.90;55.00;;;;;;5005578;28;20046;-69
2022/11/10 13:16:53;;;;;;;15.95;8.60;;;24.00;54.70;;;;;;4987527;28;20031;-68
2022/11/10 13:19:37;;;;;;;12.48;7.32;;;24.00;54.20;;;;;;4999319;28;20049;-68
2022/11/10 13:22:40;;;;;;;10.60;7.88;;;23.90;53.70;;;;;;5030520;28;20088;-68
2022/11/10 13:25:37;;;;;;;13.02;7.00;;;23.80;53.40;;;;;;5031721;28;20049;-68
2022/11/10 13:28:46;;;;;;;16.17;7.88;;;23.90;53.30;;;;;;5031869;28;20029;-69
2022/11/10 13:31:31;;;;;;;14.85;8.23;;;23.90;53.00;;;;;;5031841;28;20047;-68
2022/11/10 13:34:18;;;;;;;12.68;6.78;;;23.90;52.70;;;;;;5031452;28;20478;-69
2022/11/10 13:37:34;;;;;;;11.77;7.53;;;23.90;52.30;;;;;;5030951;28;20067;-68
2022/11/10 13:40:24;;;;;;;15.18;8.88;;;23.90;52.10;;;;;;5031460;28;20030;-68
2022/11/10 13:43:21;;;;;;;14.73;9.45;;;23.90;51.90;;;;;;5031356;28;20141;-67
2022/11/10 13:46:06;;;;;;;17.13;9.68;;;23.90;52.00;;;;;;5031146;28;20059;-68
2022/11/10 13:49:02;;;;;;;12.60;8.10;;;23.90;52.20;;;;;;5031389;28;20032;-67
2022/11/10 13:51:56;;;;;;;15.35;9.73;;;24.00;52.70;;;;;;5030761;28;20075;-68
2022/11/10 13:55:07;;;;;;;16.90;8.65;;;23.90;52.70;;;;;;5027902;28;20045;-65
2022/11/10 13:58:01;;;;;;;18.73;9.57;;;23.90;53.10;;;;;;5027635;28;20033;-71
2022/11/10 14:01:10;;;;;;;19.23;10.88;;;23.90;53.30;;;;;;5029592;28;20079;-70
2022/11/10 14:03:56;;;;;;;19.80;11.55;;;23.80;53.70;;;;;;5030417;28;20029;-69
2022/11/10 14:06:51;;;;;;;28.50;14.20;;;23.80;54.10;;;;;;5029587;28;20026;-68
2022/11/10 14:09:38;;;;;;;26.10;14.50;;;23.80;54.40;;;;;;5027707;28;20068;-68
2022/11/10 14:12:45;;;;;;;23.85;12.10;;;23.80;54.50;;;;;;5028163;28;20029;-68
2022/11/10 14:15:38;;;;;;;27.67;13.15;;;23.80;54.40;;;;;;5032914;28;20363;-69
2022/11/10 14:18:27;;;;;;;21.05;11.65;;;23.80;54.50;;;;;;5033414;28;20064;-70
2022/11/10 14:21:45;;;;;;;21.27;12.98;;;23.70;54.60;;;;;;5031279;28;20547;-70
2022/11/10 14:24:38;;;;;;;17.20;11.10;;;23.80;54.50;;;;;;5011635;28;20826;-70
2022/11/10 14:27:29;;;;;;;22.10;10.85;;;23.80;54.50;;;;;;5010422;28;20097;-68
2022/11/10 14:30:28;;;;;;;30.02;12.20;;;23.80;54.50;;;;;;5009250;28;20088;-69
2022/11/10 14:33:14;;;;;;;18.08;10.63;;;23.70;54.50;;;;;;5008850;28;20497;-67
2022/11/10 14:36:07;;;;;;;21.65;11.27;;;23.80;54.60;;;;;;5009335;28;20080;-68
2022/11/10 14:38:52;;;;;;;25.08;12.73;;;23.80;54.50;;;;;;5008780;28;20044;-74
2022/11/10 14:41:46;;;;;;;30.70;15.98;;;23.90;54.10;;;;;;5009235;28;20034;-72
2022/11/10 14:44:32;;;;;;;28.75;16.85;;;23.80;52.80;;;;;;5010858;28;20052;-71